sensor_id;sensor_type;location;lat;lon;timestamp;pressure;altitude;pressure_sealevel;temperature;humidity
73767;BME280;62074;43.530;-5.646;2022-09-02T00:00:11;101442.84;;;22.14;66.05
73767;BME280;62074;43.530;-5.646;2022-09-02T00:02:37;101467.69;;;22.26;65.62
73767;BME280;62074;43.530;-5.646;2022-09-02T00:05:03;101463.75;;;22.01;66.02
73767;BME280;62074;43.530;-5.646;2022-09-02T00:07:28;101458.13;;;21.86;66.89
73767;BME280;62074;43.530;-5.646;2022-09-02T00:09:54;101447.25;;;21.85;66.56
73767;BME280;62074;43.530;-5.646;2022-09-02T00:12:19;101470.75;;;22.09;65.94
73767;BME280;62074;43.530;-5.646;2022-09-02T00:14:45;101451.47;;;21.92;66.11
73767;BME280;62074;43.530;-5.646;2022-09-02T00:17:10;101459.81;;;21.97;66.49
73767;BME280;62074;43.530;-5.646;2022-09-02T00:19:36;101452.84;;;21.85;66.83
73767;BME280;62074;43.530;-5.646;2022-09-02T00:22:03;101449.75;;;21.81;66.59
73767;BME280;62074;43.530;-5.646;2022-09-02T00:24:29;101463.97;;;21.85;67.07
73767;BME280;62074;43.530;-5.646;2022-09-02T00:26:55;101455.06;;;21.73;66.73
73767;BME280;62074;43.530;-5.646;2022-09-02T00:29:20;101448.88;;;21.60;65.90
73767;BME280;62074;43.530;-5.646;2022-09-02T00:31:46;101447.75;;;21.56;64.83
73767;BME280;62074;43.530;-5.646;2022-09-02T00:34:12;101449.69;;;21.51;65.31
73767;BME280;62074;43.530;-5.646;2022-09-02T00:36:38;101443.03;;;21.62;64.96
73767;BME280;62074;43.530;-5.646;2022-09-02T00:39:05;101451.69;;;21.76;64.21
73767;BME280;62074;43.530;-5.646;2022-09-02T00:41:34;101452.00;;;21.84;64.04
73767;BME280;62074;43.530;-5.646;2022-09-02T00:44:04;101445.59;;;21.84;63.37
73767;BME280;62074;43.530;-5.646;2022-09-02T00:46:32;101447.50;;;21.78;63.23
73767;BME280;62074;43.530;-5.646;2022-09-02T00:49:16;101443.84;;;21.62;63.72
73767;BME280;62074;43.530;-5.646;2022-09-02T00:52:07;101444.13;;;21.51;64.17
73767;BME280;62074;43.530;-5.646;2022-09-02T00:54:38;101439.13;;;21.63;63.93
73767;BME280;62074;43.530;-5.646;2022-09-02T00:57:08;101426.31;;;21.62;63.83
73767;BME280;62074;43.530;-5.646;2022-09-02T01:02:21;101429.94;;;21.67;63.97
73767;BME280;62074;43.530;-5.646;2022-09-02T01:04:49;101421.00;;;21.50;64.46
73767;BME280;62074;43.530;-5.646;2022-09-02T01:07:15;101401.97;;;21.27;65.10
73767;BME280;62074;43.530;-5.646;2022-09-02T01:09:41;101415.41;;;21.45;65.07
73767;BME280;62074;43.530;-5.646;2022-09-02T01:12:07;101410.59;;;21.25;65.76
73767;BME280;62074;43.530;-5.646;2022-09-02T01:14:33;101388.53;;;21.19;65.30
73767;BME280;62074;43.530;-5.646;2022-09-02T01:17:00;101413.13;;;21.37;65.36
73767;BME280;62074;43.530;-5.646;2022-09-02T01:19:36;101429.88;;;21.42;65.66
73767;BME280;62074;43.530;-5.646;2022-09-02T01:22:14;101418.44;;;21.33;65.97
73767;BME280;62074;43.530;-5.646;2022-09-02T01:24:40;101407.88;;;21.35;65.58
73767;BME280;62074;43.530;-5.646;2022-09-02T01:27:06;101415.94;;;21.32;66.14
73767;BME280;62074;43.530;-5.646;2022-09-02T01:29:31;101414.53;;;21.40;66.14
73767;BME280;62074;43.530;-5.646;2022-09-02T01:31:57;101414.81;;;21.38;65.55
73767;BME280;62074;43.530;-5.646;2022-09-02T01:34:23;101408.69;;;21.31;65.95
73767;BME280;62074;43.530;-5.646;2022-09-02T01:36:48;101389.72;;;21.28;65.57
73767;BME280;62074;43.530;-5.646;2022-09-02T01:39:14;101403.66;;;21.38;65.59
73767;BME280;62074;43.530;-5.646;2022-09-02T01:41:40;101414.84;;;21.43;65.76
73767;BME280;62074;43.530;-5.646;2022-09-02T01:44:06;101416.22;;;21.46;65.55
73767;BME280;62074;43.530;-5.646;2022-09-02T01:46:33;101404.78;;;21.42;65.60
73767;BME280;62074;43.530;-5.646;2022-09-02T01:48:58;101408.13;;;21.39;65.97
73767;BME280;62074;43.530;-5.646;2022-09-02T01:51:24;101395.56;;;21.36;65.72
73767;BME280;62074;43.530;-5.646;2022-09-02T01:53:49;101409.28;;;21.48;65.17
73767;BME280;62074;43.530;-5.646;2022-09-02T01:56:15;101392.00;;;21.46;65.10
73767;BME280;62074;43.530;-5.646;2022-09-02T01:58:41;101401.47;;;21.45;65.80
73767;BME280;62074;43.530;-5.646;2022-09-02T02:01:07;101390.31;;;21.35;65.43
73767;BME280;62074;43.530;-5.646;2022-09-02T02:03:34;101397.00;;;21.34;65.39
73767;BME280;62074;43.530;-5.646;2022-09-02T02:06:00;101403.66;;;21.38;66.11
73767;BME280;62074;43.530;-5.646;2022-09-02T02:08:26;101400.34;;;21.46;65.34
73767;BME280;62074;43.530;-5.646;2022-09-02T02:10:52;101398.13;;;21.48;65.68
73767;BME280;62074;43.530;-5.646;2022-09-02T02:13:18;101402.88;;;21.48;66.09
73767;BME280;62074;43.530;-5.646;2022-09-02T02:15:44;101400.06;;;21.43;66.11
73767;BME280;62074;43.530;-5.646;2022-09-02T02:18:10;101401.75;;;21.49;66.02
73767;BME280;62074;43.530;-5.646;2022-09-02T02:20:36;101401.44;;;21.40;66.49
73767;BME280;62074;43.530;-5.646;2022-09-02T02:23:03;101389.75;;;21.38;66.31
73767;BME280;62074;43.530;-5.646;2022-09-02T02:25:30;101389.16;;;21.36;66.39
73767;BME280;62074;43.530;-5.646;2022-09-02T02:27:55;101393.94;;;21.46;65.89
73767;BME280;62074;43.530;-5.646;2022-09-02T02:30:21;101389.16;;;21.36;66.45
73767;BME280;62074;43.530;-5.646;2022-09-02T02:32:47;101396.41;;;21.37;66.64
73767;BME280;62074;43.530;-5.646;2022-09-02T02:35:17;101381.88;;;21.20;66.51
73767;BME280;62074;43.530;-5.646;2022-09-02T02:37:43;101392.78;;;21.26;67.15
73767;BME280;62074;43.530;-5.646;2022-09-02T02:40:10;101388.50;;;21.09;67.29
73767;BME280;62074;43.530;-5.646;2022-09-02T02:42:36;101402.94;;;21.00;67.79
73767;BME280;62074;43.530;-5.646;2022-09-02T02:45:02;101391.81;;;20.95;67.70
73767;BME280;62074;43.530;-5.646;2022-09-02T02:47:40;101408.56;;;21.11;67.89
73767;BME280;62074;43.530;-5.646;2022-09-02T02:50:08;101396.84;;;21.03;68.12
73767;BME280;62074;43.530;-5.646;2022-09-02T02:52:35;101364.59;;;20.55;68.98
73767;BME280;62074;43.530;-5.646;2022-09-02T02:55:01;101405.00;;;20.68;69.32
73767;BME280;62074;43.530;-5.646;2022-09-02T02:57:26;101398.94;;;20.76;68.93
73767;BME280;62074;43.530;-5.646;2022-09-02T02:59:52;101398.09;;;20.76;68.88
73767;BME280;62074;43.530;-5.646;2022-09-02T03:02:17;101389.47;;;20.72;68.79
73767;BME280;62074;43.530;-5.646;2022-09-02T03:04:43;101385.84;;;20.72;68.73
73767;BME280;62074;43.530;-5.646;2022-09-02T03:07:08;101396.72;;;20.78;68.89
73767;BME280;62074;43.530;-5.646;2022-09-02T03:09:34;101398.38;;;20.79;68.78
73767;BME280;62074;43.530;-5.646;2022-09-02T03:12:00;101397.28;;;20.75;68.83
73767;BME280;62074;43.530;-5.646;2022-09-02T03:14:26;101395.31;;;20.76;68.83
73767;BME280;62074;43.530;-5.646;2022-09-02T03:16:52;101392.47;;;20.65;69.26
73767;BME280;62074;43.530;-5.646;2022-09-02T03:19:17;101389.47;;;20.72;69.13
73767;BME280;62074;43.530;-5.646;2022-09-02T03:21:43;101393.94;;;20.78;68.65
73767;BME280;62074;43.530;-5.646;2022-09-02T03:24:10;101393.91;;;20.73;69.44
73767;BME280;62074;43.530;-5.646;2022-09-02T03:26:36;101388.81;;;20.60;69.40
73767;BME280;62074;43.530;-5.646;2022-09-02T03:29:02;101391.91;;;20.63;69.81
73767;BME280;62074;43.530;-5.646;2022-09-02T03:31:28;101387.09;;;20.49;69.80
73767;BME280;62074;43.530;-5.646;2022-09-02T03:33:54;101393.09;;;20.35;70.43
73767;BME280;62074;43.530;-5.646;2022-09-02T03:36:26;101393.84;;;20.26;70.57
73767;BME280;62074;43.530;-5.646;2022-09-02T03:38:53;101395.41;;;20.12;71.50
73767;BME280;62074;43.530;-5.646;2022-09-02T03:41:19;101394.94;;;20.25;71.07
73767;BME280;62074;43.530;-5.646;2022-09-02T03:43:45;101389.91;;;20.17;71.03
73767;BME280;62074;43.530;-5.646;2022-09-02T03:46:11;101381.03;;;20.25;70.41
73767;BME280;62074;43.530;-5.646;2022-09-02T03:48:38;101388.38;;;20.36;70.17
73767;BME280;62074;43.530;-5.646;2022-09-02T03:51:05;101397.81;;;20.35;70.16
73767;BME280;62074;43.530;-5.646;2022-09-02T03:53:31;101389.38;;;20.20;70.71
73767;BME280;62074;43.530;-5.646;2022-09-02T03:55:58;101392.69;;;20.22;70.65
73767;BME280;62074;43.530;-5.646;2022-09-02T03:58:23;101391.31;;;20.24;70.46
73767;BME280;62074;43.530;-5.646;2022-09-02T04:00:51;101394.94;;;20.20;70.25
73767;BME280;62074;43.530;-5.646;2022-09-02T04:03:17;101395.16;;;19.81;72.24
73767;BME280;62074;43.530;-5.646;2022-09-02T04:05:46;101390.78;;;19.63;72.10
73767;BME280;62074;43.530;-5.646;2022-09-02T04:08:12;101395.50;;;19.63;72.88
73767;BME280;62074;43.530;-5.646;2022-09-02T04:10:37;101389.06;;;19.84;71.93
73767;BME280;62074;43.530;-5.646;2022-09-02T04:13:03;101380.44;;;19.86;71.45
73767;BME280;62074;43.530;-5.646;2022-09-02T04:15:28;101377.91;;;19.79;72.09
73767;BME280;62074;43.530;-5.646;2022-09-02T04:17:54;101382.38;;;19.85;71.94
73767;BME280;62074;43.530;-5.646;2022-09-02T04:20:20;101382.13;;;19.87;71.90
73767;BME280;62074;43.530;-5.646;2022-09-02T04:22:47;101373.59;;;19.93;71.47
73767;BME280;62074;43.530;-5.646;2022-09-02T04:25:12;101380.19;;;19.87;71.76
73767;BME280;62074;43.530;-5.646;2022-09-02T04:27:38;101376.97;;;19.69;72.78
73767;BME280;62074;43.530;-5.646;2022-09-02T04:30:06;101360.47;;;19.57;72.99
73767;BME280;62074;43.530;-5.646;2022-09-02T04:32:32;101356.06;;;19.61;72.50
73767;BME280;62074;43.530;-5.646;2022-09-02T04:34:58;101372.50;;;19.67;72.56
73767;BME280;62074;43.530;-5.646;2022-09-02T04:37:24;101381.41;;;19.70;72.17
73767;BME280;62074;43.530;-5.646;2022-09-02T04:39:51;101374.25;;;19.74;72.33
73767;BME280;62074;43.530;-5.646;2022-09-02T04:42:16;101352.47;;;19.60;72.42
73767;BME280;62074;43.530;-5.646;2022-09-02T04:44:42;101358.03;;;19.65;72.44
73767;BME280;62074;43.530;-5.646;2022-09-02T04:47:07;101365.31;;;19.72;72.34
73767;BME280;62074;43.530;-5.646;2022-09-02T04:49:33;101352.19;;;19.62;72.45
73767;BME280;62074;43.530;-5.646;2022-09-02T04:51:59;101361.91;;;19.64;72.20
73767;BME280;62074;43.530;-5.646;2022-09-02T04:54:26;101351.88;;;19.58;72.40
73767;BME280;62074;43.530;-5.646;2022-09-02T04:56:51;101361.06;;;19.64;72.08
73767;BME280;62074;43.530;-5.646;2022-09-02T04:59:17;101359.78;;;19.72;72.56
73767;BME280;62074;43.530;-5.646;2022-09-02T05:01:44;101357.97;;;19.55;72.73
73767;BME280;62074;43.530;-5.646;2022-09-02T05:04:10;101341.13;;;19.40;73.16
73767;BME280;62074;43.530;-5.646;2022-09-02T05:06:36;101354.50;;;19.48;73.11
73767;BME280;62074;43.530;-5.646;2022-09-02T05:09:05;101352.75;;;19.37;73.49
73767;BME280;62074;43.530;-5.646;2022-09-02T05:11:32;101351.84;;;19.31;73.35
73767;BME280;62074;43.530;-5.646;2022-09-02T05:14:01;101361.28;;;19.30;73.91
73767;BME280;62074;43.530;-5.646;2022-09-02T05:16:31;101355.47;;;19.32;73.85
73767;BME280;62074;43.530;-5.646;2022-09-02T05:18:58;101342.34;;;19.27;74.03
73767;BME280;62074;43.530;-5.646;2022-09-02T05:21:24;101352.09;;;19.30;74.11
73767;BME280;62074;43.530;-5.646;2022-09-02T05:23:51;101345.22;;;19.11;74.39
73767;BME280;62074;43.530;-5.646;2022-09-02T05:26:17;101340.25;;;19.13;74.68
73767;BME280;62074;43.530;-5.646;2022-09-02T05:28:42;101363.00;;;19.37;74.28
73767;BME280;62074;43.530;-5.646;2022-09-02T05:31:10;101359.28;;;19.26;74.35
73767;BME280;62074;43.530;-5.646;2022-09-02T05:33:38;101362.78;;;19.16;74.81
73767;BME280;62074;43.530;-5.646;2022-09-02T05:36:09;101362.47;;;19.13;74.82
73767;BME280;62074;43.530;-5.646;2022-09-02T05:38:37;101358.06;;;19.17;75.12
73767;BME280;62074;43.530;-5.646;2022-09-02T05:41:08;101368.34;;;19.16;74.82
73767;BME280;62074;43.530;-5.646;2022-09-02T05:43:38;101368.09;;;19.18;75.11
73767;BME280;62074;43.530;-5.646;2022-09-02T05:46:08;101368.34;;;19.16;75.36
73767;BME280;62074;43.530;-5.646;2022-09-02T05:48:35;101362.53;;;19.18;75.05
73767;BME280;62074;43.530;-5.646;2022-09-02T05:51:20;101377.09;;;19.30;74.80
73767;BME280;62074;43.530;-5.646;2022-09-02T05:53:45;101368.31;;;19.38;74.52
73767;BME280;62074;43.530;-5.646;2022-09-02T05:56:11;101371.53;;;19.52;73.63
73767;BME280;62074;43.530;-5.646;2022-09-02T05:58:36;101369.09;;;19.33;74.75
73767;BME280;62074;43.530;-5.646;2022-09-02T06:01:15;101373.94;;;19.43;74.34
73767;BME280;62074;43.530;-5.646;2022-09-02T06:03:41;101372.47;;;19.62;73.77
73767;BME280;62074;43.530;-5.646;2022-09-02T06:06:07;101372.19;;;19.37;74.64
73767;BME280;62074;43.530;-5.646;2022-09-02T06:08:34;101382.81;;;19.45;75.22
73767;BME280;62074;43.530;-5.646;2022-09-02T06:11:01;101376.06;;;19.36;75.53
73767;BME280;62074;43.530;-5.646;2022-09-02T06:13:28;101381.19;;;19.22;75.80
73767;BME280;62074;43.530;-5.646;2022-09-02T06:15:54;101386.88;;;19.11;76.91
73767;BME280;62074;43.530;-5.646;2022-09-02T06:18:20;101395.00;;;18.95;78.21
73767;BME280;62074;43.530;-5.646;2022-09-02T06:20:46;101387.38;;;19.08;77.64
73767;BME280;62074;43.530;-5.646;2022-09-02T06:23:13;101386.41;;;19.19;77.37
73767;BME280;62074;43.530;-5.646;2022-09-02T06:25:41;101388.44;;;19.28;76.92
73767;BME280;62074;43.530;-5.646;2022-09-02T06:28:08;101394.16;;;19.17;77.46
73767;BME280;62074;43.530;-5.646;2022-09-02T06:30:33;101390.88;;;19.20;77.74
73767;BME280;62074;43.530;-5.646;2022-09-02T06:32:59;101391.88;;;19.36;77.15
73767;BME280;62074;43.530;-5.646;2022-09-02T06:35:29;101394.34;;;19.32;76.96
73767;BME280;62074;43.530;-5.646;2022-09-02T06:37:57;101393.88;;;19.40;77.02
73767;BME280;62074;43.530;-5.646;2022-09-02T06:40:23;101390.53;;;19.38;77.31
73767;BME280;62074;43.530;-5.646;2022-09-02T06:42:51;101388.44;;;19.28;77.67
73767;BME280;62074;43.530;-5.646;2022-09-02T06:45:18;101395.81;;;19.40;77.52
73767;BME280;62074;43.530;-5.646;2022-09-02T06:47:44;101369.16;;;19.39;77.43
73767;BME280;62074;43.530;-5.646;2022-09-02T06:50:10;101388.06;;;19.42;77.17
73767;BME280;62074;43.530;-5.646;2022-09-02T06:52:37;101375.16;;;19.52;76.86
73767;BME280;62074;43.530;-5.646;2022-09-02T06:55:04;101397.50;;;19.41;77.69
73767;BME280;62074;43.530;-5.646;2022-09-02T06:57:29;101403.91;;;19.46;77.19
73767;BME280;62074;43.530;-5.646;2022-09-02T06:59:55;101404.91;;;19.35;77.33
73767;BME280;62074;43.530;-5.646;2022-09-02T07:02:21;101398.34;;;19.19;77.64
73767;BME280;62074;43.530;-5.646;2022-09-02T07:04:46;101399.38;;;19.35;77.70
73767;BME280;62074;43.530;-5.646;2022-09-02T07:07:30;101406.59;;;19.36;77.17
73767;BME280;62074;43.530;-5.646;2022-09-02T07:09:56;101410.25;;;19.63;76.37
73767;BME280;62074;43.530;-5.646;2022-09-02T07:12:21;101391.34;;;19.60;76.16
73767;BME280;62074;43.530;-5.646;2022-09-02T07:14:47;101399.25;;;19.74;75.70
73767;BME280;62074;43.530;-5.646;2022-09-02T07:17:14;101400.16;;;19.79;75.50
73767;BME280;62074;43.530;-5.646;2022-09-02T07:19:42;101403.56;;;19.91;75.00
73767;BME280;62074;43.530;-5.646;2022-09-02T07:22:08;101408.03;;;19.92;74.45
73767;BME280;62074;43.530;-5.646;2022-09-02T07:24:35;101398.22;;;19.85;74.58
73767;BME280;62074;43.530;-5.646;2022-09-02T07:27:00;101417.88;;;20.05;74.22
73767;BME280;62074;43.530;-5.646;2022-09-02T07:29:26;101393.78;;;19.84;74.73
73767;BME280;62074;43.530;-5.646;2022-09-02T07:31:52;101409.72;;;19.93;74.63
73767;BME280;62074;43.530;-5.646;2022-09-02T07:34:18;101399.13;;;19.90;74.11
73767;BME280;62074;43.530;-5.646;2022-09-02T07:36:43;101412.00;;;20.01;73.69
73767;BME280;62074;43.530;-5.646;2022-09-02T07:39:13;101402.16;;;19.89;73.47
73767;BME280;62074;43.530;-5.646;2022-09-02T07:41:40;101397.19;;;19.91;72.29
73767;BME280;62074;43.530;-5.646;2022-09-02T07:44:06;101408.09;;;19.97;72.67
73767;BME280;62074;43.530;-5.646;2022-09-02T07:46:33;101422.56;;;19.99;72.54
73767;BME280;62074;43.530;-5.646;2022-09-02T07:54:35;101403.00;;;19.89;71.90
73767;BME280;62074;43.530;-5.646;2022-09-02T07:57:01;101423.28;;;20.22;71.35
73767;BME280;62074;43.530;-5.646;2022-09-02T07:59:26;101418.53;;;20.17;70.93
73767;BME280;62074;43.530;-5.646;2022-09-02T08:01:52;101428.84;;;20.22;70.36
73767;BME280;62074;43.530;-5.646;2022-09-02T08:04:19;101396.72;;;19.99;70.37
73767;BME280;62074;43.530;-5.646;2022-09-02T08:06:48;101420.44;;;20.12;70.14
73767;BME280;62074;43.530;-5.646;2022-09-02T08:09:14;101416.03;;;20.16;69.50
73767;BME280;62074;43.530;-5.646;2022-09-02T08:11:43;101420.44;;;20.12;70.05
73767;BME280;62074;43.530;-5.646;2022-09-02T08:14:12;101412.09;;;20.12;70.21
73767;BME280;62074;43.530;-5.646;2022-09-02T08:16:38;101406.06;;;20.25;70.07
73767;BME280;62074;43.530;-5.646;2022-09-02T08:19:06;101402.72;;;20.23;70.42
73767;BME280;62074;43.530;-5.646;2022-09-02T08:21:32;101415.97;;;20.43;70.62
73767;BME280;62074;43.530;-5.646;2022-09-02T08:23:57;101421.50;;;20.38;70.67
73767;BME280;62074;43.530;-5.646;2022-09-02T08:26:27;101422.41;;;20.48;69.82
73767;BME280;62074;43.530;-5.646;2022-09-02T08:28:56;101422.50;;;20.63;68.78
73767;BME280;62074;43.530;-5.646;2022-09-02T08:31:24;101414.69;;;20.55;68.97
73767;BME280;62074;43.530;-5.646;2022-09-02T08:33:50;101426.38;;;20.57;68.65
73767;BME280;62074;43.530;-5.646;2022-09-02T08:36:15;101419.38;;;20.50;68.73
73767;BME280;62074;43.530;-5.646;2022-09-02T08:38:41;101427.44;;;20.51;68.53
73767;BME280;62074;43.530;-5.646;2022-09-02T08:41:21;101426.81;;;20.39;67.88
73767;BME280;62074;43.530;-5.646;2022-09-02T08:43:48;101421.50;;;20.38;68.83
73767;BME280;62074;43.530;-5.646;2022-09-02T08:46:16;101425.50;;;20.52;67.65
73767;BME280;62074;43.530;-5.646;2022-09-02T08:48:48;101423.88;;;20.56;67.11
73767;BME280;62074;43.530;-5.646;2022-09-02T08:56:41;101416.59;;;20.50;66.88
73767;BME280;62074;43.530;-5.646;2022-09-02T08:59:08;101423.91;;;20.66;66.35
73767;BME280;62074;43.530;-5.646;2022-09-02T09:12:17;101426.69;;;21.13;65.46
73767;BME280;62074;43.530;-5.646;2022-09-02T09:15:02;101415.19;;;20.99;64.99
73767;BME280;62074;43.530;-5.646;2022-09-02T09:17:46;101415.00;;;21.16;64.75
73767;BME280;62074;43.530;-5.646;2022-09-02T09:20:23;101416.97;;;21.21;64.16
73767;BME280;62074;43.530;-5.646;2022-09-02T09:22:54;101414.50;;;21.24;63.60
73767;BME280;62074;43.530;-5.646;2022-09-02T09:25:24;101413.44;;;21.35;63.92
73767;BME280;62074;43.530;-5.646;2022-09-02T09:27:55;101417.91;;;21.57;62.92
73767;BME280;62074;43.530;-5.646;2022-09-02T09:30:21;101416.59;;;21.90;61.85
73767;BME280;62074;43.530;-5.646;2022-09-02T09:32:51;101424.72;;;22.27;60.49
73767;BME280;62074;43.530;-5.646;2022-09-02T09:35:20;101400.13;;;22.54;59.15
73767;BME280;62074;43.530;-5.646;2022-09-02T09:37:48;101408.72;;;22.73;57.27
73767;BME280;62074;43.530;-5.646;2022-09-02T09:42:57;101406.81;;;22.68;58.13
73767;BME280;62074;43.530;-5.646;2022-09-02T09:45:33;101401.28;;;22.48;56.92
73767;BME280;62074;43.530;-5.646;2022-09-02T09:48:18;101409.66;;;22.43;55.88
73767;BME280;62074;43.530;-5.646;2022-09-02T09:51:08;101402.09;;;22.44;56.22
73767;BME280;62074;43.530;-5.646;2022-09-02T09:53:35;101405.22;;;22.32;55.01
73767;BME280;62074;43.530;-5.646;2022-09-02T09:56:18;101402.69;;;22.25;55.63
73767;BME280;62074;43.530;-5.646;2022-09-02T09:58:46;101397.66;;;22.27;55.60
73767;BME280;62074;43.530;-5.646;2022-09-02T10:01:17;101401.28;;;22.48;54.46
73767;BME280;62074;43.530;-5.646;2022-09-02T10:06:22;101412.97;;;22.65;54.17
73767;BME280;62074;43.530;-5.646;2022-09-02T10:08:57;101400.97;;;22.60;53.99
73767;BME280;62074;43.530;-5.646;2022-09-02T10:11:28;101400.38;;;22.68;54.29
73767;BME280;62074;43.530;-5.646;2022-09-02T10:14:02;101404.00;;;22.84;53.32
73767;BME280;62074;43.530;-5.646;2022-09-02T10:26:57;101386.66;;;23.90;51.64
73767;BME280;62074;43.530;-5.646;2022-09-02T10:29:40;101403.09;;;24.02;51.25
73767;BME280;62074;43.530;-5.646;2022-09-02T10:35:19;101401.84;;;23.79;53.36
73767;BME280;62074;43.530;-5.646;2022-09-02T10:38:21;101402.03;;;23.54;54.06
73767;BME280;62074;43.530;-5.646;2022-09-02T10:41:16;101407.09;;;23.41;54.53
73767;BME280;62074;43.530;-5.646;2022-09-02T10:46:39;101415.53;;;23.31;54.58
73767;BME280;62074;43.530;-5.646;2022-09-02T10:56:13;101436.13;;;22.61;57.40
73767;BME280;62074;43.530;-5.646;2022-09-02T10:58:56;101433.06;;;22.52;58.84
73767;BME280;62074;43.530;-5.646;2022-09-02T11:04:52;101419.97;;;22.32;59.04
73767;BME280;62074;43.530;-5.646;2022-09-02T11:07:27;101417.97;;;22.53;58.10
73767;BME280;62074;43.530;-5.646;2022-09-02T11:09:58;101414.63;;;22.66;57.70
73767;BME280;62074;43.530;-5.646;2022-09-02T11:12:55;101409.84;;;22.72;56.91
73767;BME280;62074;43.530;-5.646;2022-09-02T11:15:34;101410.66;;;22.98;57.24
73767;BME280;62074;43.530;-5.646;2022-09-02T11:25:07;101394.34;;;23.20;54.15
73767;BME280;62074;43.530;-5.646;2022-09-02T11:34:34;101407.38;;;23.40;53.59
73767;BME280;62074;43.530;-5.646;2022-09-02T11:47:27;101406.94;;;23.18;53.96
73767;BME280;62074;43.530;-5.646;2022-09-02T11:58:58;101405.09;;;22.72;56.65
73767;BME280;62074;43.530;-5.646;2022-09-02T12:04:45;101409.31;;;22.65;57.80
73767;BME280;62074;43.530;-5.646;2022-09-02T12:16:40;101380.00;;;22.67;58.44
73767;BME280;62074;43.530;-5.646;2022-09-02T12:22:33;101409.09;;;22.36;59.89
73767;BME280;62074;43.530;-5.646;2022-09-02T12:25:32;101418.31;;;22.31;61.01
73767;BME280;62074;43.530;-5.646;2022-09-02T12:27:49;101418.84;;;22.13;61.01
73767;BME280;62074;43.530;-5.646;2022-09-02T12:33:34;101410.50;;;22.23;61.30
73767;BME280;62074;43.530;-5.646;2022-09-02T12:36:01;101415.75;;;21.99;61.97
73767;BME280;62074;43.530;-5.646;2022-09-02T12:38:40;101415.75;;;21.94;62.30
73767;BME280;62074;43.530;-5.646;2022-09-02T12:41:28;101419.16;;;22.07;62.29
73767;BME280;62074;43.530;-5.646;2022-09-02T12:47:07;101427.97;;;21.53;65.68
73767;BME280;62074;43.530;-5.646;2022-09-02T12:49:52;101421.31;;;21.79;64.70
73767;BME280;62074;43.530;-5.646;2022-09-02T12:55:07;101423.28;;;21.74;63.94
73767;BME280;62074;43.530;-5.646;2022-09-02T12:57:40;101427.44;;;21.81;63.69
73767;BME280;62074;43.530;-5.646;2022-09-02T13:00:07;101427.47;;;21.96;63.58
73767;BME280;62074;43.530;-5.646;2022-09-02T13:03:36;101429.69;;;21.74;64.56
73767;BME280;62074;43.530;-5.646;2022-09-02T13:06:00;101438.91;;;21.90;65.37
73767;BME280;62074;43.530;-5.646;2022-09-02T13:26:28;101468.84;;;20.85;73.49
73767;BME280;62074;43.530;-5.646;2022-09-02T13:31:25;101463.53;;;20.83;72.49
73767;BME280;62074;43.530;-5.646;2022-09-02T13:34:02;101468.91;;;20.95;72.21
73767;BME280;62074;43.530;-5.646;2022-09-02T13:36:39;101474.75;;;20.98;73.33
73767;BME280;62074;43.530;-5.646;2022-09-02T13:39:16;101469.59;;;20.70;73.84
73767;BME280;62074;43.530;-5.646;2022-09-02T13:41:42;101464.28;;;20.68;73.81
73767;BME280;62074;43.530;-5.646;2022-09-02T13:44:10;101473.56;;;20.84;74.38
73767;BME280;62074;43.530;-5.646;2022-09-02T13:47:03;101464.09;;;20.85;73.62
73767;BME280;62074;43.530;-5.646;2022-09-02T13:49:40;101465.75;;;20.81;74.26
73767;BME280;62074;43.530;-5.646;2022-09-02T13:52:12;101474.88;;;20.72;73.75
73767;BME280;62074;43.530;-5.646;2022-09-02T13:54:43;101472.84;;;20.57;74.39
73767;BME280;62074;43.530;-5.646;2022-09-02T13:57:12;101479.09;;;20.74;74.21
73767;BME280;62074;43.530;-5.646;2022-09-02T13:59:50;101470.75;;;20.42;74.69
73767;BME280;62074;43.530;-5.646;2022-09-02T14:02:34;101480.09;;;20.58;74.47
73767;BME280;62074;43.530;-5.646;2022-09-02T14:05:21;101471.97;;;20.24;77.04
73767;BME280;62074;43.530;-5.646;2022-09-02T14:07:56;101468.56;;;20.44;76.56
73767;BME280;62074;43.530;-5.646;2022-09-02T14:10:25;101466.59;;;20.40;76.64
73767;BME280;62074;43.530;-5.646;2022-09-02T14:12:53;101467.75;;;20.49;75.48
73767;BME280;62074;43.530;-5.646;2022-09-02T14:15:30;101475.47;;;20.37;75.44
73767;BME280;62074;43.530;-5.646;2022-09-02T14:18:16;101463.88;;;20.50;75.55
73767;BME280;62074;43.530;-5.646;2022-09-02T14:21:15;101465.59;;;20.61;74.20
73767;BME280;62074;43.530;-5.646;2022-09-02T14:23:50;101457.63;;;20.69;73.92
73767;BME280;62074;43.530;-5.646;2022-09-02T14:26:24;101463.41;;;20.63;74.30
73767;BME280;62074;43.530;-5.646;2022-09-02T14:28:54;101459.56;;;20.69;73.99
73767;BME280;62074;43.530;-5.646;2022-09-02T14:31:26;101465.34;;;20.57;74.04
73767;BME280;62074;43.530;-5.646;2022-09-02T14:33:55;101456.41;;;20.55;75.74
73767;BME280;62074;43.530;-5.646;2022-09-02T14:38:56;101467.38;;;20.72;75.31
73767;BME280;62074;43.530;-5.646;2022-09-02T14:41:27;101453.50;;;20.82;75.00
73767;BME280;62074;43.530;-5.646;2022-09-02T14:46:46;101440.78;;;20.49;76.48
73767;BME280;62074;43.530;-5.646;2022-09-02T14:54:45;101455.97;;;20.74;76.77
73767;BME280;62074;43.530;-5.646;2022-09-02T14:57:28;101453.66;;;20.60;77.09
73767;BME280;62074;43.530;-5.646;2022-09-02T15:00:00;101449.75;;;20.61;77.18
73767;BME280;62074;43.530;-5.646;2022-09-02T15:04:55;101411.44;;;20.74;75.63
73767;BME280;62074;43.530;-5.646;2022-09-02T15:07:22;101447.09;;;20.82;76.83
73767;BME280;62074;43.530;-5.646;2022-09-02T15:09:48;101457.38;;;20.76;76.20
73767;BME280;62074;43.530;-5.646;2022-09-02T15:12:17;101445.63;;;21.16;75.01
73767;BME280;62074;43.530;-5.646;2022-09-02T15:14:44;101444.28;;;21.24;74.34
